<?xml version="1.0" encoding="UTF-8" standalone="no" ?>
<gpx xmlns="http://www.topografix.com/GPX/1/1" xmlns:xsi="http://www.w3.org/2001/XMLSchema-instance" xsi:schemaLocation="http://www.topografix.com/GPX/1/1 http://www.topografix.com/GPX/1/1/gpx.xsd" version="1.1" creator="VisuGPX - https://www.visugpx.com">
  <metadata>
    <name>2017-04-20 SECTEUR DU HAUT KOENIGSBOURG</name>
    <desc><![CDATA[2017-04-20 SECTEUR DU HAUT KOENIGSBOURG organisé par Lionel]]></desc>
  </metadata>
  <trk>
    <name><![CDATA[OR-8036572--Châtenois:2017-04-20 SECTEUR DU HAUT KOENIGSBOURG]]></name>
    <trkseg>
      <trkpt lat="48.26903" lon="7.39803">
        <ele>195</ele>
        <time>2017-10-23T12:43:23Z</time>
      </trkpt>
      <trkpt lat="48.26915" lon="7.39806">
        <ele>195</ele>
        <time>2017-10-23T12:45:23Z</time>
      </trkpt>
      <trkpt lat="48.26916" lon="7.39825">
        <ele>193</ele>
        <time>2017-10-23T12:47:23Z</time>
      </trkpt>
      <trkpt lat="48.26917" lon="7.39865">
        <ele>191</ele>
        <time>2017-10-23T12:49:23Z</time>
      </trkpt>
      <trkpt lat="48.26918" lon="7.39903">
        <ele>190</ele>
        <time>2017-10-23T12:51:23Z</time>
      </trkpt>
      <trkpt lat="48.26919" lon="7.39921">
        <ele>190</ele>
        <time>2017-10-23T12:53:23Z</time>
      </trkpt>
      <trkpt lat="48.26914" lon="7.39922">
        <ele>190</ele>
        <time>2017-10-23T12:55:23Z</time>
      </trkpt>
      <trkpt lat="48.26912" lon="7.39907">
        <ele>190</ele>
        <time>2017-10-23T12:57:23Z</time>
      </trkpt>
      <trkpt lat="48.26911" lon="7.39874">
        <ele>191</ele>
        <time>2017-10-23T12:59:23Z</time>
      </trkpt>
      <trkpt lat="48.26908" lon="7.39859">
        <ele>192</ele>
        <time>2017-10-23T13:01:23Z</time>
      </trkpt>
      <trkpt lat="48.26904" lon="7.39849">
        <ele>192</ele>
        <time>2017-10-23T13:03:23Z</time>
      </trkpt>
      <trkpt lat="48.2689" lon="7.39845">
        <ele>193</ele>
        <time>2017-10-23T13:05:23Z</time>
      </trkpt>
      <trkpt lat="48.26874" lon="7.39832">
        <ele>194</ele>
        <time>2017-10-23T13:07:23Z</time>
      </trkpt>
      <trkpt lat="48.26862" lon="7.39806">
        <ele>196</ele>
        <time>2017-10-23T13:09:23Z</time>
      </trkpt>
      <trkpt lat="48.26856" lon="7.39779">
        <ele>198</ele>
        <time>2017-10-23T13:11:23Z</time>
      </trkpt>
      <trkpt lat="48.26853" lon="7.3976">
        <ele>200</ele>
        <time>2017-10-23T13:13:23Z</time>
      </trkpt>
      <trkpt lat="48.26854" lon="7.39733">
        <ele>202</ele>
        <time>2017-10-23T13:15:23Z</time>
      </trkpt>
      <trkpt lat="48.26857" lon="7.39703">
        <ele>204</ele>
        <time>2017-10-23T13:17:23Z</time>
      </trkpt>
      <trkpt lat="48.2686" lon="7.39675">
        <ele>206</ele>
        <time>2017-10-23T13:19:23Z</time>
      </trkpt>
      <trkpt lat="48.26862" lon="7.39648">
        <ele>209</ele>
        <time>2017-10-23T13:21:23Z</time>
      </trkpt>
      <trkpt lat="48.2687" lon="7.39635">
        <ele>211</ele>
        <time>2017-10-23T13:23:23Z</time>
      </trkpt>
      <trkpt lat="48.2689" lon="7.3963">
        <ele>211</ele>
        <time>2017-10-23T13:25:23Z</time>
      </trkpt>
      <trkpt lat="48.26912" lon="7.39628">
        <ele>210</ele>
        <time>2017-10-23T13:27:23Z</time>
      </trkpt>
      <trkpt lat="48.26945" lon="7.39628">
        <ele>209</ele>
        <time>2017-10-23T13:29:23Z</time>
      </trkpt>
      <trkpt lat="48.26979" lon="7.3963">
        <ele>207</ele>
        <time>2017-10-23T13:31:23Z</time>
      </trkpt>
      <trkpt lat="48.27006" lon="7.39632">
        <ele>206</ele>
        <time>2017-10-23T13:33:23Z</time>
      </trkpt>
      <trkpt lat="48.27019" lon="7.39632">
        <ele>205</ele>
        <time>2017-10-23T13:35:23Z</time>
      </trkpt>
      <trkpt lat="48.27023" lon="7.39625">
        <ele>206</ele>
        <time>2017-10-23T13:37:23Z</time>
      </trkpt>
      <trkpt lat="48.27027" lon="7.39609">
        <ele>207</ele>
        <time>2017-10-23T13:39:23Z</time>
      </trkpt>
      <trkpt lat="48.27051" lon="7.39582">
        <ele>208</ele>
        <time>2017-10-23T13:41:23Z</time>
      </trkpt>
      <trkpt lat="48.27067" lon="7.39563">
        <ele>210</ele>
        <time>2017-10-23T13:43:23Z</time>
      </trkpt>
      <trkpt lat="48.27077" lon="7.39541">
        <ele>213</ele>
        <time>2017-10-23T13:45:23Z</time>
      </trkpt>
      <trkpt lat="48.27082" lon="7.3952">
        <ele>215</ele>
        <time>2017-10-23T13:47:23Z</time>
      </trkpt>
      <trkpt lat="48.27085" lon="7.39508">
        <ele>217</ele>
        <time>2017-10-23T13:49:23Z</time>
      </trkpt>
      <trkpt lat="48.27114" lon="7.39492">
        <ele>220</ele>
        <time>2017-10-23T13:51:23Z</time>
      </trkpt>
      <trkpt lat="48.2714" lon="7.39483">
        <ele>223</ele>
        <time>2017-10-23T13:53:23Z</time>
      </trkpt>
      <trkpt lat="48.27197" lon="7.39463">
        <ele>230</ele>
        <time>2017-10-23T13:55:23Z</time>
      </trkpt>
      <trkpt lat="48.27199" lon="7.39455">
        <ele>232</ele>
        <time>2017-10-23T13:57:23Z</time>
      </trkpt>
      <trkpt lat="48.27206" lon="7.39462">
        <ele>231</ele>
        <time>2017-10-23T13:59:23Z</time>
      </trkpt>
      <trkpt lat="48.27234" lon="7.39464">
        <ele>231</ele>
        <time>2017-10-23T14:01:23Z</time>
      </trkpt>
      <trkpt lat="48.2726" lon="7.39441">
        <ele>237</ele>
        <time>2017-10-23T14:03:23Z</time>
      </trkpt>
      <trkpt lat="48.27293" lon="7.39425">
        <ele>240</ele>
        <time>2017-10-23T14:05:23Z</time>
      </trkpt>
      <trkpt lat="48.27352" lon="7.39411">
        <ele>241</ele>
        <time>2017-10-23T14:07:23Z</time>
      </trkpt>
      <trkpt lat="48.27377" lon="7.39402">
        <ele>242</ele>
        <time>2017-10-23T14:09:23Z</time>
      </trkpt>
      <trkpt lat="48.27373" lon="7.39389">
        <ele>246</ele>
        <time>2017-10-23T14:11:23Z</time>
      </trkpt>
      <trkpt lat="48.2733" lon="7.39387">
        <ele>248</ele>
        <time>2017-10-23T14:13:23Z</time>
      </trkpt>
      <trkpt lat="48.27298" lon="7.39399">
        <ele>247</ele>
        <time>2017-10-23T14:15:23Z</time>
      </trkpt>
      <trkpt lat="48.27287" lon="7.39396">
        <ele>249</ele>
        <time>2017-10-23T14:17:23Z</time>
      </trkpt>
      <trkpt lat="48.27295" lon="7.39378">
        <ele>254</ele>
        <time>2017-10-23T14:19:23Z</time>
      </trkpt>
      <trkpt lat="48.27331" lon="7.3934">
        <ele>261</ele>
        <time>2017-10-23T14:21:23Z</time>
      </trkpt>
      <trkpt lat="48.27374" lon="7.3932">
        <ele>266</ele>
        <time>2017-10-23T14:23:23Z</time>
      </trkpt>
      <trkpt lat="48.27418" lon="7.39306">
        <ele>271</ele>
        <time>2017-10-23T14:25:23Z</time>
      </trkpt>
      <trkpt lat="48.27464" lon="7.39303">
        <ele>274</ele>
        <time>2017-10-23T14:27:23Z</time>
      </trkpt>
      <trkpt lat="48.27505" lon="7.39307">
        <ele>276</ele>
        <time>2017-10-23T14:29:23Z</time>
      </trkpt>
      <trkpt lat="48.27552" lon="7.39325">
        <ele>276</ele>
        <time>2017-10-23T14:31:23Z</time>
      </trkpt>
      <trkpt lat="48.27622" lon="7.39338">
        <ele>278</ele>
        <time>2017-10-23T14:33:23Z</time>
      </trkpt>
      <trkpt lat="48.27554" lon="7.39286">
        <ele>291</ele>
        <time>2017-10-23T14:35:23Z</time>
      </trkpt>
      <trkpt lat="48.2752" lon="7.39258">
        <ele>296</ele>
        <time>2017-10-23T14:37:23Z</time>
      </trkpt>
      <trkpt lat="48.27496" lon="7.3923">
        <ele>304</ele>
        <time>2017-10-23T14:39:23Z</time>
      </trkpt>
      <trkpt lat="48.2746" lon="7.39201">
        <ele>312</ele>
        <time>2017-10-23T14:41:23Z</time>
      </trkpt>
      <trkpt lat="48.27436" lon="7.39185">
        <ele>315</ele>
        <time>2017-10-23T14:43:23Z</time>
      </trkpt>
      <trkpt lat="48.27427" lon="7.39173">
        <ele>318</ele>
        <time>2017-10-23T14:45:23Z</time>
      </trkpt>
      <trkpt lat="48.27396" lon="7.39146">
        <ele>327</ele>
        <time>2017-10-23T14:47:23Z</time>
      </trkpt>
      <trkpt lat="48.27342" lon="7.39127">
        <ele>333</ele>
        <time>2017-10-23T14:49:23Z</time>
      </trkpt>
      <trkpt lat="48.27274" lon="7.39084">
        <ele>354</ele>
        <time>2017-10-23T14:51:23Z</time>
      </trkpt>
      <trkpt lat="48.27229" lon="7.39064">
        <ele>361</ele>
        <time>2017-10-23T14:53:23Z</time>
      </trkpt>
      <trkpt lat="48.27196" lon="7.39043">
        <ele>365</ele>
        <time>2017-10-23T14:55:23Z</time>
      </trkpt>
      <trkpt lat="48.27204" lon="7.39026">
        <ele>371</ele>
        <time>2017-10-23T14:57:23Z</time>
      </trkpt>
      <trkpt lat="48.27174" lon="7.39001">
        <ele>378</ele>
        <time>2017-10-23T14:59:23Z</time>
      </trkpt>
      <trkpt lat="48.27161" lon="7.38985">
        <ele>381</ele>
        <time>2017-10-23T15:01:23Z</time>
      </trkpt>
      <trkpt lat="48.27191" lon="7.38967">
        <ele>387</ele>
        <time>2017-10-23T15:03:23Z</time>
      </trkpt>
      <trkpt lat="48.27225" lon="7.38956">
        <ele>390</ele>
        <time>2017-10-23T15:05:23Z</time>
      </trkpt>
      <trkpt lat="48.27248" lon="7.38966">
        <ele>388</ele>
        <time>2017-10-23T15:07:23Z</time>
      </trkpt>
      <trkpt lat="48.27275" lon="7.38968">
        <ele>387</ele>
        <time>2017-10-23T15:09:23Z</time>
      </trkpt>
      <trkpt lat="48.27304" lon="7.38968">
        <ele>386</ele>
        <time>2017-10-23T15:11:23Z</time>
      </trkpt>
      <trkpt lat="48.27318" lon="7.38963">
        <ele>387</ele>
        <time>2017-10-23T15:13:23Z</time>
      </trkpt>
      <trkpt lat="48.27289" lon="7.38937">
        <ele>393</ele>
        <time>2017-10-23T15:15:23Z</time>
      </trkpt>
      <trkpt lat="48.2726" lon="7.38905">
        <ele>400</ele>
        <time>2017-10-23T15:17:23Z</time>
      </trkpt>
      <trkpt lat="48.27256" lon="7.38881">
        <ele>403</ele>
        <time>2017-10-23T15:19:23Z</time>
      </trkpt>
      <trkpt lat="48.27253" lon="7.38854">
        <ele>406</ele>
        <time>2017-10-23T15:21:23Z</time>
      </trkpt>
      <trkpt lat="48.27248" lon="7.38848">
        <ele>408</ele>
        <time>2017-10-23T15:23:23Z</time>
      </trkpt>
      <trkpt lat="48.27241" lon="7.38838">
        <ele>410</ele>
        <time>2017-10-23T15:25:23Z</time>
      </trkpt>
      <trkpt lat="48.27232" lon="7.38827">
        <ele>412</ele>
        <time>2017-10-23T15:27:23Z</time>
      </trkpt>
      <trkpt lat="48.27228" lon="7.38832">
        <ele>413</ele>
        <time>2017-10-23T15:29:23Z</time>
      </trkpt>
      <trkpt lat="48.27225" lon="7.38842">
        <ele>411</ele>
        <time>2017-10-23T15:31:23Z</time>
      </trkpt>
      <trkpt lat="48.27222" lon="7.3885">
        <ele>411</ele>
        <time>2017-10-23T15:33:23Z</time>
      </trkpt>
      <trkpt lat="48.27218" lon="7.3886">
        <ele>409</ele>
        <time>2017-10-23T15:35:23Z</time>
      </trkpt>
      <trkpt lat="48.27212" lon="7.38876">
        <ele>407</ele>
        <time>2017-10-23T15:37:23Z</time>
      </trkpt>
      <trkpt lat="48.27213" lon="7.38856">
        <ele>411</ele>
        <time>2017-10-23T15:39:23Z</time>
      </trkpt>
      <trkpt lat="48.27218" lon="7.38841">
        <ele>413</ele>
        <time>2017-10-23T15:41:23Z</time>
      </trkpt>
      <trkpt lat="48.27222" lon="7.3883">
        <ele>414</ele>
        <time>2017-10-23T15:43:23Z</time>
      </trkpt>
      <trkpt lat="48.2723" lon="7.3882">
        <ele>413</ele>
        <time>2017-10-23T15:45:23Z</time>
      </trkpt>
      <trkpt lat="48.27256" lon="7.38845">
        <ele>406</ele>
        <time>2017-10-23T15:47:23Z</time>
      </trkpt>
      <trkpt lat="48.27259" lon="7.38831">
        <ele>407</ele>
        <time>2017-10-23T15:49:23Z</time>
      </trkpt>
      <trkpt lat="48.27255" lon="7.38819">
        <ele>408</ele>
        <time>2017-10-23T15:51:23Z</time>
      </trkpt>
      <trkpt lat="48.2723" lon="7.38747">
        <ele>416</ele>
        <time>2017-10-23T15:53:23Z</time>
      </trkpt>
      <trkpt lat="48.27158" lon="7.38632">
        <ele>437</ele>
        <time>2017-10-23T15:55:23Z</time>
      </trkpt>
      <trkpt lat="48.27102" lon="7.38491">
        <ele>451</ele>
        <time>2017-10-23T15:57:23Z</time>
      </trkpt>
      <trkpt lat="48.27098" lon="7.38449">
        <ele>448</ele>
        <time>2017-10-23T15:59:23Z</time>
      </trkpt>
      <trkpt lat="48.271" lon="7.38414">
        <ele>443</ele>
        <time>2017-10-23T16:01:23Z</time>
      </trkpt>
      <trkpt lat="48.27072" lon="7.38399">
        <ele>448</ele>
        <time>2017-10-23T16:03:23Z</time>
      </trkpt>
      <trkpt lat="48.27045" lon="7.38405">
        <ele>456</ele>
        <time>2017-10-23T16:05:23Z</time>
      </trkpt>
      <trkpt lat="48.27057" lon="7.38462">
        <ele>463</ele>
        <time>2017-10-23T16:07:23Z</time>
      </trkpt>
      <trkpt lat="48.27059" lon="7.3851">
        <ele>470</ele>
        <time>2017-10-23T16:09:23Z</time>
      </trkpt>
      <trkpt lat="48.27053" lon="7.38552">
        <ele>475</ele>
        <time>2017-10-23T16:11:23Z</time>
      </trkpt>
      <trkpt lat="48.27047" lon="7.38588">
        <ele>479</ele>
        <time>2017-10-23T16:13:23Z</time>
      </trkpt>
      <trkpt lat="48.2704" lon="7.38605">
        <ele>478</ele>
        <time>2017-10-23T16:15:23Z</time>
      </trkpt>
      <trkpt lat="48.27036" lon="7.38523">
        <ele>479</ele>
        <time>2017-10-23T16:17:23Z</time>
      </trkpt>
      <trkpt lat="48.27027" lon="7.38552">
        <ele>485</ele>
        <time>2017-10-23T16:19:23Z</time>
      </trkpt>
      <trkpt lat="48.2699" lon="7.38512">
        <ele>493</ele>
        <time>2017-10-23T16:21:23Z</time>
      </trkpt>
      <trkpt lat="48.26927" lon="7.38497">
        <ele>500</ele>
        <time>2017-10-23T16:23:23Z</time>
      </trkpt>
      <trkpt lat="48.26864" lon="7.38497">
        <ele>508</ele>
        <time>2017-10-23T16:25:23Z</time>
      </trkpt>
      <trkpt lat="48.26826" lon="7.38492">
        <ele>511</ele>
        <time>2017-10-23T16:27:23Z</time>
      </trkpt>
      <trkpt lat="48.26804" lon="7.38509">
        <ele>514</ele>
        <time>2017-10-23T16:29:23Z</time>
      </trkpt>
      <trkpt lat="48.26825" lon="7.38525">
        <ele>515</ele>
        <time>2017-10-23T16:31:23Z</time>
      </trkpt>
      <trkpt lat="48.26838" lon="7.38561">
        <ele>517</ele>
        <time>2017-10-23T16:33:23Z</time>
      </trkpt>
      <trkpt lat="48.26772" lon="7.3857">
        <ele>520</ele>
        <time>2017-10-23T16:35:23Z</time>
      </trkpt>
      <trkpt lat="48.26761" lon="7.38564">
        <ele>520</ele>
        <time>2017-10-23T16:37:23Z</time>
      </trkpt>
      <trkpt lat="48.26737" lon="7.38584">
        <ele>519</ele>
        <time>2017-10-23T16:39:23Z</time>
      </trkpt>
      <trkpt lat="48.26705" lon="7.38585">
        <ele>516</ele>
        <time>2017-10-23T16:41:23Z</time>
      </trkpt>
      <trkpt lat="48.26646" lon="7.38566">
        <ele>509</ele>
        <time>2017-10-23T16:43:23Z</time>
      </trkpt>
      <trkpt lat="48.26595" lon="7.3854">
        <ele>502</ele>
        <time>2017-10-23T16:45:23Z</time>
      </trkpt>
      <trkpt lat="48.26531" lon="7.38523">
        <ele>492</ele>
        <time>2017-10-23T16:47:23Z</time>
      </trkpt>
      <trkpt lat="48.26548" lon="7.38452">
        <ele>496</ele>
        <time>2017-10-23T16:49:23Z</time>
      </trkpt>
      <trkpt lat="48.26574" lon="7.38372">
        <ele>495</ele>
        <time>2017-10-23T16:51:23Z</time>
      </trkpt>
      <trkpt lat="48.26582" lon="7.38313">
        <ele>491</ele>
        <time>2017-10-23T16:53:23Z</time>
      </trkpt>
      <trkpt lat="48.26548" lon="7.38212">
        <ele>475</ele>
        <time>2017-10-23T16:55:23Z</time>
      </trkpt>
      <trkpt lat="48.2651" lon="7.38148">
        <ele>466</ele>
        <time>2017-10-23T16:57:23Z</time>
      </trkpt>
      <trkpt lat="48.26453" lon="7.38201">
        <ele>462</ele>
        <time>2017-10-23T16:59:23Z</time>
      </trkpt>
      <trkpt lat="48.26383" lon="7.38222">
        <ele>452</ele>
        <time>2017-10-23T17:01:23Z</time>
      </trkpt>
      <trkpt lat="48.26362" lon="7.38252">
        <ele>448</ele>
        <time>2017-10-23T17:03:23Z</time>
      </trkpt>
      <trkpt lat="48.26349" lon="7.38288">
        <ele>445</ele>
        <time>2017-10-23T17:05:23Z</time>
      </trkpt>
      <trkpt lat="48.26344" lon="7.38341">
        <ele>442</ele>
        <time>2017-10-23T17:07:23Z</time>
      </trkpt>
      <trkpt lat="48.26338" lon="7.38355">
        <ele>439</ele>
        <time>2017-10-23T17:09:23Z</time>
      </trkpt>
      <trkpt lat="48.26322" lon="7.38352">
        <ele>437</ele>
        <time>2017-10-23T17:11:23Z</time>
      </trkpt>
      <trkpt lat="48.26301" lon="7.38317">
        <ele>436</ele>
        <time>2017-10-23T17:13:23Z</time>
      </trkpt>
      <trkpt lat="48.26287" lon="7.38299">
        <ele>435</ele>
        <time>2017-10-23T17:15:23Z</time>
      </trkpt>
      <trkpt lat="48.26224" lon="7.38262">
        <ele>428</ele>
        <time>2017-10-23T17:17:23Z</time>
      </trkpt>
      <trkpt lat="48.26187" lon="7.38241">
        <ele>424</ele>
        <time>2017-10-23T17:19:23Z</time>
      </trkpt>
      <trkpt lat="48.26147" lon="7.38236">
        <ele>419</ele>
        <time>2017-10-23T17:21:23Z</time>
      </trkpt>
      <trkpt lat="48.26119" lon="7.38239">
        <ele>416</ele>
        <time>2017-10-23T17:23:23Z</time>
      </trkpt>
      <trkpt lat="48.26092" lon="7.38255">
        <ele>413</ele>
        <time>2017-10-23T17:25:23Z</time>
      </trkpt>
      <trkpt lat="48.2607" lon="7.3828">
        <ele>410</ele>
        <time>2017-10-23T17:27:23Z</time>
      </trkpt>
      <trkpt lat="48.26043" lon="7.38268">
        <ele>406</ele>
        <time>2017-10-23T17:29:23Z</time>
      </trkpt>
      <trkpt lat="48.26019" lon="7.38249">
        <ele>404</ele>
        <time>2017-10-23T17:31:23Z</time>
      </trkpt>
      <trkpt lat="48.26" lon="7.38228">
        <ele>401</ele>
        <time>2017-10-23T17:33:23Z</time>
      </trkpt>
      <trkpt lat="48.25993" lon="7.38202">
        <ele>397</ele>
        <time>2017-10-23T17:35:23Z</time>
      </trkpt>
      <trkpt lat="48.25989" lon="7.38181">
        <ele>395</ele>
        <time>2017-10-23T17:37:23Z</time>
      </trkpt>
      <trkpt lat="48.25997" lon="7.38157">
        <ele>395</ele>
        <time>2017-10-23T17:39:23Z</time>
      </trkpt>
      <trkpt lat="48.26005" lon="7.38138">
        <ele>393</ele>
        <time>2017-10-23T17:41:23Z</time>
      </trkpt>
      <trkpt lat="48.26027" lon="7.38132">
        <ele>395</ele>
        <time>2017-10-23T17:43:23Z</time>
      </trkpt>
      <trkpt lat="48.26048" lon="7.3813">
        <ele>398</ele>
        <time>2017-10-23T17:45:23Z</time>
      </trkpt>
      <trkpt lat="48.26061" lon="7.38108">
        <ele>396</ele>
        <time>2017-10-23T17:47:23Z</time>
      </trkpt>
      <trkpt lat="48.26075" lon="7.38084">
        <ele>394</ele>
        <time>2017-10-23T17:49:23Z</time>
      </trkpt>
      <trkpt lat="48.26109" lon="7.38072">
        <ele>396</ele>
        <time>2017-10-23T17:51:23Z</time>
      </trkpt>
      <trkpt lat="48.26138" lon="7.38057">
        <ele>396</ele>
        <time>2017-10-23T17:53:23Z</time>
      </trkpt>
      <trkpt lat="48.26169" lon="7.38059">
        <ele>399</ele>
        <time>2017-10-23T17:55:23Z</time>
      </trkpt>
      <trkpt lat="48.2619" lon="7.38064">
        <ele>403</ele>
        <time>2017-10-23T17:57:23Z</time>
      </trkpt>
      <trkpt lat="48.26214" lon="7.38035">
        <ele>401</ele>
        <time>2017-10-23T17:59:23Z</time>
      </trkpt>
      <trkpt lat="48.2624" lon="7.3802">
        <ele>403</ele>
        <time>2017-10-23T18:01:23Z</time>
      </trkpt>
      <trkpt lat="48.26264" lon="7.38005">
        <ele>408</ele>
        <time>2017-10-23T18:03:23Z</time>
      </trkpt>
      <trkpt lat="48.26263" lon="7.37981">
        <ele>408</ele>
        <time>2017-10-23T18:05:23Z</time>
      </trkpt>
      <trkpt lat="48.26249" lon="7.37966">
        <ele>406</ele>
        <time>2017-10-23T18:07:23Z</time>
      </trkpt>
      <trkpt lat="48.26237" lon="7.37948">
        <ele>405</ele>
        <time>2017-10-23T18:09:23Z</time>
      </trkpt>
      <trkpt lat="48.26199" lon="7.37896">
        <ele>402</ele>
        <time>2017-10-23T18:11:23Z</time>
      </trkpt>
      <trkpt lat="48.26148" lon="7.37882">
        <ele>394</ele>
        <time>2017-10-23T18:13:23Z</time>
      </trkpt>
      <trkpt lat="48.26141" lon="7.3786">
        <ele>395</ele>
        <time>2017-10-23T18:15:23Z</time>
      </trkpt>
      <trkpt lat="48.26139" lon="7.37837">
        <ele>397</ele>
        <time>2017-10-23T18:17:23Z</time>
      </trkpt>
      <trkpt lat="48.2614" lon="7.37786">
        <ele>398</ele>
        <time>2017-10-23T18:19:23Z</time>
      </trkpt>
      <trkpt lat="48.26144" lon="7.37734">
        <ele>400</ele>
        <time>2017-10-23T18:21:23Z</time>
      </trkpt>
      <trkpt lat="48.26151" lon="7.37689">
        <ele>402</ele>
        <time>2017-10-23T18:23:23Z</time>
      </trkpt>
      <trkpt lat="48.26149" lon="7.37642">
        <ele>402</ele>
        <time>2017-10-23T18:25:23Z</time>
      </trkpt>
      <trkpt lat="48.26142" lon="7.37596">
        <ele>400</ele>
        <time>2017-10-23T18:27:23Z</time>
      </trkpt>
      <trkpt lat="48.26124" lon="7.37523">
        <ele>399</ele>
        <time>2017-10-23T18:29:23Z</time>
      </trkpt>
      <trkpt lat="48.26118" lon="7.37481">
        <ele>399</ele>
        <time>2017-10-23T18:31:23Z</time>
      </trkpt>
      <trkpt lat="48.26092" lon="7.37436">
        <ele>397</ele>
        <time>2017-10-23T18:33:23Z</time>
      </trkpt>
      <trkpt lat="48.26075" lon="7.37414">
        <ele>397</ele>
        <time>2017-10-23T18:35:23Z</time>
      </trkpt>
      <trkpt lat="48.26049" lon="7.37397">
        <ele>396</ele>
        <time>2017-10-23T18:37:23Z</time>
      </trkpt>
      <trkpt lat="48.2604" lon="7.37329">
        <ele>395</ele>
        <time>2017-10-23T18:39:23Z</time>
      </trkpt>
      <trkpt lat="48.26028" lon="7.37253">
        <ele>392</ele>
        <time>2017-10-23T18:41:23Z</time>
      </trkpt>
      <trkpt lat="48.26025" lon="7.37207">
        <ele>389</ele>
        <time>2017-10-23T18:43:23Z</time>
      </trkpt>
      <trkpt lat="48.2603" lon="7.37093">
        <ele>384</ele>
        <time>2017-10-23T18:45:23Z</time>
      </trkpt>
      <trkpt lat="48.26033" lon="7.37021">
        <ele>383</ele>
        <time>2017-10-23T18:47:23Z</time>
      </trkpt>
      <trkpt lat="48.26029" lon="7.36983">
        <ele>382</ele>
        <time>2017-10-23T18:49:23Z</time>
      </trkpt>
      <trkpt lat="48.26023" lon="7.36961">
        <ele>381</ele>
        <time>2017-10-23T18:51:23Z</time>
      </trkpt>
      <trkpt lat="48.26004" lon="7.36967">
        <ele>384</ele>
        <time>2017-10-23T18:53:23Z</time>
      </trkpt>
      <trkpt lat="48.2598" lon="7.36973">
        <ele>386</ele>
        <time>2017-10-23T18:55:23Z</time>
      </trkpt>
      <trkpt lat="48.25949" lon="7.36964">
        <ele>387</ele>
        <time>2017-10-23T18:57:23Z</time>
      </trkpt>
      <trkpt lat="48.25935" lon="7.36958">
        <ele>387</ele>
        <time>2017-10-23T18:59:23Z</time>
      </trkpt>
      <trkpt lat="48.2589" lon="7.36964">
        <ele>390</ele>
        <time>2017-10-23T19:01:23Z</time>
      </trkpt>
      <trkpt lat="48.2583" lon="7.36972">
        <ele>393</ele>
        <time>2017-10-23T19:03:23Z</time>
      </trkpt>
      <trkpt lat="48.25798" lon="7.36996">
        <ele>392</ele>
        <time>2017-10-23T19:05:23Z</time>
      </trkpt>
      <trkpt lat="48.25793" lon="7.3701">
        <ele>391</ele>
        <time>2017-10-23T19:07:23Z</time>
      </trkpt>
      <trkpt lat="48.25766" lon="7.36968">
        <ele>392</ele>
        <time>2017-10-23T19:09:23Z</time>
      </trkpt>
      <trkpt lat="48.25685" lon="7.36844">
        <ele>394</ele>
        <time>2017-10-23T19:11:23Z</time>
      </trkpt>
      <trkpt lat="48.25651" lon="7.36795">
        <ele>397</ele>
        <time>2017-10-23T19:13:23Z</time>
      </trkpt>
      <trkpt lat="48.25605" lon="7.36709">
        <ele>400</ele>
        <time>2017-10-23T19:15:23Z</time>
      </trkpt>
      <trkpt lat="48.25585" lon="7.36698">
        <ele>402</ele>
        <time>2017-10-23T19:17:23Z</time>
      </trkpt>
      <trkpt lat="48.25548" lon="7.36669">
        <ele>405</ele>
        <time>2017-10-23T19:19:23Z</time>
      </trkpt>
      <trkpt lat="48.25511" lon="7.3663">
        <ele>408</ele>
        <time>2017-10-23T19:21:23Z</time>
      </trkpt>
      <trkpt lat="48.25495" lon="7.366">
        <ele>410</ele>
        <time>2017-10-23T19:23:23Z</time>
      </trkpt>
      <trkpt lat="48.2546" lon="7.36502">
        <ele>418</ele>
        <time>2017-10-23T19:25:23Z</time>
      </trkpt>
      <trkpt lat="48.25426" lon="7.36403">
        <ele>422</ele>
        <time>2017-10-23T19:27:23Z</time>
      </trkpt>
      <trkpt lat="48.2542" lon="7.36374">
        <ele>424</ele>
        <time>2017-10-23T19:29:23Z</time>
      </trkpt>
      <trkpt lat="48.25364" lon="7.3627">
        <ele>429</ele>
        <time>2017-10-23T19:31:23Z</time>
      </trkpt>
      <trkpt lat="48.25327" lon="7.36171">
        <ele>432</ele>
        <time>2017-10-23T19:33:23Z</time>
      </trkpt>
      <trkpt lat="48.2528" lon="7.36075">
        <ele>437</ele>
        <time>2017-10-23T19:35:23Z</time>
      </trkpt>
      <trkpt lat="48.25235" lon="7.35977">
        <ele>441</ele>
        <time>2017-10-23T19:37:23Z</time>
      </trkpt>
      <trkpt lat="48.25181" lon="7.35895">
        <ele>444</ele>
        <time>2017-10-23T19:39:23Z</time>
      </trkpt>
      <trkpt lat="48.25161" lon="7.35843">
        <ele>442</ele>
        <time>2017-10-23T19:41:23Z</time>
      </trkpt>
      <trkpt lat="48.25138" lon="7.35795">
        <ele>441</ele>
        <time>2017-10-23T19:43:23Z</time>
      </trkpt>
      <trkpt lat="48.25101" lon="7.35755">
        <ele>445</ele>
        <time>2017-10-23T19:45:23Z</time>
      </trkpt>
      <trkpt lat="48.25083" lon="7.3572">
        <ele>446</ele>
        <time>2017-10-23T19:47:23Z</time>
      </trkpt>
      <trkpt lat="48.25069" lon="7.35698">
        <ele>446</ele>
        <time>2017-10-23T19:49:23Z</time>
      </trkpt>
      <trkpt lat="48.25051" lon="7.35678">
        <ele>447</ele>
        <time>2017-10-23T19:51:23Z</time>
      </trkpt>
      <trkpt lat="48.25021" lon="7.35576">
        <ele>448</ele>
        <time>2017-10-23T19:53:23Z</time>
      </trkpt>
      <trkpt lat="48.24985" lon="7.35472">
        <ele>452</ele>
        <time>2017-10-23T19:55:23Z</time>
      </trkpt>
      <trkpt lat="48.24955" lon="7.35383">
        <ele>473</ele>
        <time>2017-10-23T19:57:23Z</time>
      </trkpt>
      <trkpt lat="48.24957" lon="7.35358">
        <ele>476</ele>
        <time>2017-10-23T19:59:23Z</time>
      </trkpt>
      <trkpt lat="48.24974" lon="7.3536">
        <ele>473</ele>
        <time>2017-10-23T20:01:23Z</time>
      </trkpt>
      <trkpt lat="48.24997" lon="7.35357">
        <ele>469</ele>
        <time>2017-10-23T20:03:23Z</time>
      </trkpt>
      <trkpt lat="48.2503" lon="7.35362">
        <ele>464</ele>
        <time>2017-10-23T20:05:23Z</time>
      </trkpt>
      <trkpt lat="48.25067" lon="7.35362">
        <ele>459</ele>
        <time>2017-10-23T20:07:23Z</time>
      </trkpt>
      <trkpt lat="48.25097" lon="7.35349">
        <ele>459</ele>
        <time>2017-10-23T20:09:23Z</time>
      </trkpt>
      <trkpt lat="48.25121" lon="7.35328">
        <ele>459</ele>
        <time>2017-10-23T20:11:23Z</time>
      </trkpt>
      <trkpt lat="48.25137" lon="7.35294">
        <ele>460</ele>
        <time>2017-10-23T20:13:23Z</time>
      </trkpt>
      <trkpt lat="48.25141" lon="7.35275">
        <ele>461</ele>
        <time>2017-10-23T20:15:23Z</time>
      </trkpt>
      <trkpt lat="48.251" lon="7.35264">
        <ele>476</ele>
        <time>2017-10-23T20:17:23Z</time>
      </trkpt>
      <trkpt lat="48.25076" lon="7.35253">
        <ele>485</ele>
        <time>2017-10-23T20:19:23Z</time>
      </trkpt>
      <trkpt lat="48.25055" lon="7.35215">
        <ele>492</ele>
        <time>2017-10-23T20:21:23Z</time>
      </trkpt>
      <trkpt lat="48.25027" lon="7.35186">
        <ele>500</ele>
        <time>2017-10-23T20:23:23Z</time>
      </trkpt>
      <trkpt lat="48.25011" lon="7.35152">
        <ele>509</ele>
        <time>2017-10-23T20:25:23Z</time>
      </trkpt>
      <trkpt lat="48.24976" lon="7.3513">
        <ele>514</ele>
        <time>2017-10-23T20:27:23Z</time>
      </trkpt>
      <trkpt lat="48.24931" lon="7.35096">
        <ele>521</ele>
        <time>2017-10-23T20:29:23Z</time>
      </trkpt>
      <trkpt lat="48.24889" lon="7.35081">
        <ele>526</ele>
        <time>2017-10-23T20:31:23Z</time>
      </trkpt>
      <trkpt lat="48.24925" lon="7.35061">
        <ele>533</ele>
        <time>2017-10-23T20:33:23Z</time>
      </trkpt>
      <trkpt lat="48.24945" lon="7.35044">
        <ele>538</ele>
        <time>2017-10-23T20:35:23Z</time>
      </trkpt>
      <trkpt lat="48.24952" lon="7.35034">
        <ele>542</ele>
        <time>2017-10-23T20:37:23Z</time>
      </trkpt>
      <trkpt lat="48.24968" lon="7.35025">
        <ele>544</ele>
        <time>2017-10-23T20:39:23Z</time>
      </trkpt>
      <trkpt lat="48.24999" lon="7.35001">
        <ele>550</ele>
        <time>2017-10-23T20:41:23Z</time>
      </trkpt>
      <trkpt lat="48.2504" lon="7.34965">
        <ele>559</ele>
        <time>2017-10-23T20:43:23Z</time>
      </trkpt>
      <trkpt lat="48.25087" lon="7.34915">
        <ele>568</ele>
        <time>2017-10-23T20:45:23Z</time>
      </trkpt>
      <trkpt lat="48.25123" lon="7.34876">
        <ele>567</ele>
        <time>2017-10-23T20:47:23Z</time>
      </trkpt>
      <trkpt lat="48.25136" lon="7.34852">
        <ele>570</ele>
        <time>2017-10-23T20:49:23Z</time>
      </trkpt>
      <trkpt lat="48.25149" lon="7.3482">
        <ele>574</ele>
        <time>2017-10-23T20:51:23Z</time>
      </trkpt>
      <trkpt lat="48.25161" lon="7.34786">
        <ele>579</ele>
        <time>2017-10-23T20:53:23Z</time>
      </trkpt>
      <trkpt lat="48.25172" lon="7.34749">
        <ele>586</ele>
        <time>2017-10-23T20:55:23Z</time>
      </trkpt>
      <trkpt lat="48.25181" lon="7.34718">
        <ele>587</ele>
        <time>2017-10-23T20:57:23Z</time>
      </trkpt>
      <trkpt lat="48.25187" lon="7.34686">
        <ele>591</ele>
        <time>2017-10-23T20:59:23Z</time>
      </trkpt>
      <trkpt lat="48.25189" lon="7.34657">
        <ele>596</ele>
        <time>2017-10-23T21:01:23Z</time>
      </trkpt>
      <trkpt lat="48.2519" lon="7.34598">
        <ele>604</ele>
        <time>2017-10-23T21:03:23Z</time>
      </trkpt>
      <trkpt lat="48.2519" lon="7.34532">
        <ele>607</ele>
        <time>2017-10-23T21:05:23Z</time>
      </trkpt>
      <trkpt lat="48.25185" lon="7.34478">
        <ele>611</ele>
        <time>2017-10-23T21:07:23Z</time>
      </trkpt>
      <trkpt lat="48.2518" lon="7.34427">
        <ele>615</ele>
        <time>2017-10-23T21:09:23Z</time>
      </trkpt>
      <trkpt lat="48.25174" lon="7.34391">
        <ele>617</ele>
        <time>2017-10-23T21:11:23Z</time>
      </trkpt>
      <trkpt lat="48.25168" lon="7.34349">
        <ele>620</ele>
        <time>2017-10-23T21:13:23Z</time>
      </trkpt>
      <trkpt lat="48.25161" lon="7.34295">
        <ele>620</ele>
        <time>2017-10-23T21:15:23Z</time>
      </trkpt>
      <trkpt lat="48.25151" lon="7.34238">
        <ele>622</ele>
        <time>2017-10-23T21:17:23Z</time>
      </trkpt>
      <trkpt lat="48.25141" lon="7.34191">
        <ele>626</ele>
        <time>2017-10-23T21:19:23Z</time>
      </trkpt>
      <trkpt lat="48.25136" lon="7.34163">
        <ele>629</ele>
        <time>2017-10-23T21:21:23Z</time>
      </trkpt>
      <trkpt lat="48.25137" lon="7.34119">
        <ele>628</ele>
        <time>2017-10-23T21:23:23Z</time>
      </trkpt>
      <trkpt lat="48.25135" lon="7.3409">
        <ele>629</ele>
        <time>2017-10-23T21:25:23Z</time>
      </trkpt>
      <trkpt lat="48.25123" lon="7.34063">
        <ele>637</ele>
        <time>2017-10-23T21:27:23Z</time>
      </trkpt>
      <trkpt lat="48.25109" lon="7.34105">
        <ele>646</ele>
        <time>2017-10-23T21:29:23Z</time>
      </trkpt>
      <trkpt lat="48.25106" lon="7.34184">
        <ele>649</ele>
        <time>2017-10-23T21:31:23Z</time>
      </trkpt>
      <trkpt lat="48.25058" lon="7.34391">
        <ele>685</ele>
        <time>2017-10-23T21:33:23Z</time>
      </trkpt>
      <trkpt lat="48.25051" lon="7.34436">
        <ele>688</ele>
        <time>2017-10-23T21:35:23Z</time>
      </trkpt>
      <trkpt lat="48.25039" lon="7.34508">
        <ele>691</ele>
        <time>2017-10-23T21:37:23Z</time>
      </trkpt>
      <trkpt lat="48.25032" lon="7.34541">
        <ele>692</ele>
        <time>2017-10-23T21:39:23Z</time>
      </trkpt>
      <trkpt lat="48.25012" lon="7.34594">
        <ele>696</ele>
        <time>2017-10-23T21:41:23Z</time>
      </trkpt>
      <trkpt lat="48.24993" lon="7.34635">
        <ele>692</ele>
        <time>2017-10-23T21:43:23Z</time>
      </trkpt>
      <trkpt lat="48.24974" lon="7.34655">
        <ele>687</ele>
        <time>2017-10-23T21:45:23Z</time>
      </trkpt>
      <trkpt lat="48.24958" lon="7.34662">
        <ele>684</ele>
        <time>2017-10-23T21:47:23Z</time>
      </trkpt>
      <trkpt lat="48.24947" lon="7.34656">
        <ele>684</ele>
        <time>2017-10-23T21:49:23Z</time>
      </trkpt>
      <trkpt lat="48.2495" lon="7.34628">
        <ele>690</ele>
        <time>2017-10-23T21:51:23Z</time>
      </trkpt>
      <trkpt lat="48.24936" lon="7.34615">
        <ele>692</ele>
        <time>2017-10-23T21:53:23Z</time>
      </trkpt>
      <trkpt lat="48.24926" lon="7.34586">
        <ele>697</ele>
        <time>2017-10-23T21:55:23Z</time>
      </trkpt>
      <trkpt lat="48.2492" lon="7.3456">
        <ele>701</ele>
        <time>2017-10-23T21:57:23Z</time>
      </trkpt>
      <trkpt lat="48.24914" lon="7.34515">
        <ele>706</ele>
        <time>2017-10-23T21:59:23Z</time>
      </trkpt>
      <trkpt lat="48.24912" lon="7.34485">
        <ele>709</ele>
        <time>2017-10-23T22:01:23Z</time>
      </trkpt>
      <trkpt lat="48.2491" lon="7.34453">
        <ele>712</ele>
        <time>2017-10-23T22:03:23Z</time>
      </trkpt>
      <trkpt lat="48.24905" lon="7.34423">
        <ele>712</ele>
        <time>2017-10-23T22:05:23Z</time>
      </trkpt>
      <trkpt lat="48.24898" lon="7.34333">
        <ele>716</ele>
        <time>2017-10-23T22:07:23Z</time>
      </trkpt>
      <trkpt lat="48.24901" lon="7.3425">
        <ele>723</ele>
        <time>2017-10-23T22:09:23Z</time>
      </trkpt>
      <trkpt lat="48.24896" lon="7.34252">
        <ele>720</ele>
        <time>2017-10-23T22:11:23Z</time>
      </trkpt>
      <trkpt lat="48.24895" lon="7.34308">
        <ele>716</ele>
        <time>2017-10-23T22:13:23Z</time>
      </trkpt>
      <trkpt lat="48.24895" lon="7.34347">
        <ele>713</ele>
        <time>2017-10-23T22:15:23Z</time>
      </trkpt>
      <trkpt lat="48.249" lon="7.34411">
        <ele>710</ele>
        <time>2017-10-23T22:17:23Z</time>
      </trkpt>
      <trkpt lat="48.24904" lon="7.3444">
        <ele>710</ele>
        <time>2017-10-23T22:19:23Z</time>
      </trkpt>
      <trkpt lat="48.24906" lon="7.34466">
        <ele>708</ele>
        <time>2017-10-23T22:21:23Z</time>
      </trkpt>
      <trkpt lat="48.24911" lon="7.34532">
        <ele>702</ele>
        <time>2017-10-23T22:23:23Z</time>
      </trkpt>
      <trkpt lat="48.24918" lon="7.34573">
        <ele>699</ele>
        <time>2017-10-23T22:25:23Z</time>
      </trkpt>
      <trkpt lat="48.2493" lon="7.34609">
        <ele>693</ele>
        <time>2017-10-23T22:27:23Z</time>
      </trkpt>
      <trkpt lat="48.24938" lon="7.34626">
        <ele>690</ele>
        <time>2017-10-23T22:29:23Z</time>
      </trkpt>
      <trkpt lat="48.24946" lon="7.34635">
        <ele>689</ele>
        <time>2017-10-23T22:31:23Z</time>
      </trkpt>
      <trkpt lat="48.24945" lon="7.34642">
        <ele>687</ele>
        <time>2017-10-23T22:33:23Z</time>
      </trkpt>
      <trkpt lat="48.24933" lon="7.3463">
        <ele>689</ele>
        <time>2017-10-23T22:35:23Z</time>
      </trkpt>
      <trkpt lat="48.24915" lon="7.34591">
        <ele>695</ele>
        <time>2017-10-23T22:37:23Z</time>
      </trkpt>
      <trkpt lat="48.24886" lon="7.3447">
        <ele>697</ele>
        <time>2017-10-23T22:39:23Z</time>
      </trkpt>
      <trkpt lat="48.2486" lon="7.34336">
        <ele>693</ele>
        <time>2017-10-23T22:41:23Z</time>
      </trkpt>
      <trkpt lat="48.2483" lon="7.34121">
        <ele>688</ele>
        <time>2017-10-23T22:43:23Z</time>
      </trkpt>
      <trkpt lat="48.24823" lon="7.34065">
        <ele>684</ele>
        <time>2017-10-23T22:45:23Z</time>
      </trkpt>
      <trkpt lat="48.2482" lon="7.34034">
        <ele>684</ele>
        <time>2017-10-23T22:47:23Z</time>
      </trkpt>
      <trkpt lat="48.24814" lon="7.34003">
        <ele>683</ele>
        <time>2017-10-23T22:49:23Z</time>
      </trkpt>
      <trkpt lat="48.24806" lon="7.33976">
        <ele>678</ele>
        <time>2017-10-23T22:51:23Z</time>
      </trkpt>
      <trkpt lat="48.24795" lon="7.34011">
        <ele>671</ele>
        <time>2017-10-23T22:53:23Z</time>
      </trkpt>
      <trkpt lat="48.24782" lon="7.34073">
        <ele>660</ele>
        <time>2017-10-23T22:55:23Z</time>
      </trkpt>
      <trkpt lat="48.2477" lon="7.34146">
        <ele>653</ele>
        <time>2017-10-23T22:57:23Z</time>
      </trkpt>
      <trkpt lat="48.2477" lon="7.34216">
        <ele>649</ele>
        <time>2017-10-23T22:59:23Z</time>
      </trkpt>
      <trkpt lat="48.2476" lon="7.34183">
        <ele>646</ele>
        <time>2017-10-23T23:01:23Z</time>
      </trkpt>
      <trkpt lat="48.24754" lon="7.34163">
        <ele>643</ele>
        <time>2017-10-23T23:03:23Z</time>
      </trkpt>
      <trkpt lat="48.2473" lon="7.34279">
        <ele>623</ele>
        <time>2017-10-23T23:05:23Z</time>
      </trkpt>
      <trkpt lat="48.24731" lon="7.34356">
        <ele>619</ele>
        <time>2017-10-23T23:07:23Z</time>
      </trkpt>
      <trkpt lat="48.24728" lon="7.34396">
        <ele>616</ele>
        <time>2017-10-23T23:09:23Z</time>
      </trkpt>
      <trkpt lat="48.2473" lon="7.34445">
        <ele>613</ele>
        <time>2017-10-23T23:11:23Z</time>
      </trkpt>
      <trkpt lat="48.24728" lon="7.34494">
        <ele>608</ele>
        <time>2017-10-23T23:13:23Z</time>
      </trkpt>
      <trkpt lat="48.24729" lon="7.34535">
        <ele>604</ele>
        <time>2017-10-23T23:15:23Z</time>
      </trkpt>
      <trkpt lat="48.24737" lon="7.34562">
        <ele>605</ele>
        <time>2017-10-23T23:17:23Z</time>
      </trkpt>
      <trkpt lat="48.24745" lon="7.34589">
        <ele>606</ele>
        <time>2017-10-23T23:19:23Z</time>
      </trkpt>
      <trkpt lat="48.24745" lon="7.34614">
        <ele>602</ele>
        <time>2017-10-23T23:21:23Z</time>
      </trkpt>
      <trkpt lat="48.24744" lon="7.3464">
        <ele>598</ele>
        <time>2017-10-23T23:23:23Z</time>
      </trkpt>
      <trkpt lat="48.24715" lon="7.34629">
        <ele>586</ele>
        <time>2017-10-23T23:25:23Z</time>
      </trkpt>
      <trkpt lat="48.24692" lon="7.34622">
        <ele>577</ele>
        <time>2017-10-23T23:27:23Z</time>
      </trkpt>
      <trkpt lat="48.24682" lon="7.34666">
        <ele>568</ele>
        <time>2017-10-23T23:29:23Z</time>
      </trkpt>
      <trkpt lat="48.24676" lon="7.34689">
        <ele>563</ele>
        <time>2017-10-23T23:31:23Z</time>
      </trkpt>
      <trkpt lat="48.24669" lon="7.34706">
        <ele>558</ele>
        <time>2017-10-23T23:33:23Z</time>
      </trkpt>
      <trkpt lat="48.24715" lon="7.34801">
        <ele>562</ele>
        <time>2017-10-23T23:35:23Z</time>
      </trkpt>
      <trkpt lat="48.24739" lon="7.34856">
        <ele>557</ele>
        <time>2017-10-23T23:37:23Z</time>
      </trkpt>
      <trkpt lat="48.24757" lon="7.34905">
        <ele>549</ele>
        <time>2017-10-23T23:39:23Z</time>
      </trkpt>
      <trkpt lat="48.24763" lon="7.34926">
        <ele>547</ele>
        <time>2017-10-23T23:41:23Z</time>
      </trkpt>
      <trkpt lat="48.2478" lon="7.34985">
        <ele>537</ele>
        <time>2017-10-23T23:43:23Z</time>
      </trkpt>
      <trkpt lat="48.24793" lon="7.3505">
        <ele>527</ele>
        <time>2017-10-23T23:45:23Z</time>
      </trkpt>
      <trkpt lat="48.2481" lon="7.35109">
        <ele>519</ele>
        <time>2017-10-23T23:47:23Z</time>
      </trkpt>
      <trkpt lat="48.24827" lon="7.35135">
        <ele>518</ele>
        <time>2017-10-23T23:49:23Z</time>
      </trkpt>
      <trkpt lat="48.24841" lon="7.35153">
        <ele>514</ele>
        <time>2017-10-23T23:51:23Z</time>
      </trkpt>
      <trkpt lat="48.24837" lon="7.35205">
        <ele>509</ele>
        <time>2017-10-23T23:53:23Z</time>
      </trkpt>
      <trkpt lat="48.24844" lon="7.35268">
        <ele>502</ele>
        <time>2017-10-23T23:55:23Z</time>
      </trkpt>
      <trkpt lat="48.24849" lon="7.35325">
        <ele>496</ele>
        <time>2017-10-23T23:57:23Z</time>
      </trkpt>
      <trkpt lat="48.24854" lon="7.35358">
        <ele>492</ele>
        <time>2017-10-23T23:59:23Z</time>
      </trkpt>
      <trkpt lat="48.24858" lon="7.35399">
        <ele>488</ele>
        <time>2017-10-24T00:01:23Z</time>
      </trkpt>
      <trkpt lat="48.24837" lon="7.35431">
        <ele>487</ele>
        <time>2017-10-24T00:03:23Z</time>
      </trkpt>
      <trkpt lat="48.24807" lon="7.35481">
        <ele>481</ele>
        <time>2017-10-24T00:05:23Z</time>
      </trkpt>
      <trkpt lat="48.24779" lon="7.35532">
        <ele>478</ele>
        <time>2017-10-24T00:07:23Z</time>
      </trkpt>
      <trkpt lat="48.24751" lon="7.35582">
        <ele>477</ele>
        <time>2017-10-24T00:09:23Z</time>
      </trkpt>
      <trkpt lat="48.24716" lon="7.35664">
        <ele>475</ele>
        <time>2017-10-24T00:11:23Z</time>
      </trkpt>
      <trkpt lat="48.24696" lon="7.35721">
        <ele>475</ele>
        <time>2017-10-24T00:13:23Z</time>
      </trkpt>
      <trkpt lat="48.2467" lon="7.35769">
        <ele>475</ele>
        <time>2017-10-24T00:15:23Z</time>
      </trkpt>
      <trkpt lat="48.24633" lon="7.35796">
        <ele>472</ele>
        <time>2017-10-24T00:17:23Z</time>
      </trkpt>
      <trkpt lat="48.24588" lon="7.35818">
        <ele>466</ele>
        <time>2017-10-24T00:19:23Z</time>
      </trkpt>
      <trkpt lat="48.2456" lon="7.35828">
        <ele>463</ele>
        <time>2017-10-24T00:21:23Z</time>
      </trkpt>
      <trkpt lat="48.24528" lon="7.35863">
        <ele>461</ele>
        <time>2017-10-24T00:23:23Z</time>
      </trkpt>
      <trkpt lat="48.24494" lon="7.35948">
        <ele>457</ele>
        <time>2017-10-24T00:25:23Z</time>
      </trkpt>
      <trkpt lat="48.24472" lon="7.36021">
        <ele>454</ele>
        <time>2017-10-24T00:27:23Z</time>
      </trkpt>
      <trkpt lat="48.2444" lon="7.36089">
        <ele>446</ele>
        <time>2017-10-24T00:29:23Z</time>
      </trkpt>
      <trkpt lat="48.24412" lon="7.36151">
        <ele>435</ele>
        <time>2017-10-24T00:31:23Z</time>
      </trkpt>
      <trkpt lat="48.24382" lon="7.36246">
        <ele>421</ele>
        <time>2017-10-24T00:33:23Z</time>
      </trkpt>
      <trkpt lat="48.24356" lon="7.36347">
        <ele>408</ele>
        <time>2017-10-24T00:35:23Z</time>
      </trkpt>
      <trkpt lat="48.24336" lon="7.36491">
        <ele>386</ele>
        <time>2017-10-24T00:37:23Z</time>
      </trkpt>
      <trkpt lat="48.24321" lon="7.36564">
        <ele>379</ele>
        <time>2017-10-24T00:39:23Z</time>
      </trkpt>
      <trkpt lat="48.24299" lon="7.36638">
        <ele>375</ele>
        <time>2017-10-24T00:41:23Z</time>
      </trkpt>
      <trkpt lat="48.24279" lon="7.36715">
        <ele>370</ele>
        <time>2017-10-24T00:43:23Z</time>
      </trkpt>
      <trkpt lat="48.24267" lon="7.36812">
        <ele>359</ele>
        <time>2017-10-24T00:45:23Z</time>
      </trkpt>
      <trkpt lat="48.24252" lon="7.36906">
        <ele>353</ele>
        <time>2017-10-24T00:47:23Z</time>
      </trkpt>
      <trkpt lat="48.24244" lon="7.36996">
        <ele>345</ele>
        <time>2017-10-24T00:49:23Z</time>
      </trkpt>
      <trkpt lat="48.24238" lon="7.37101">
        <ele>332</ele>
        <time>2017-10-24T00:51:23Z</time>
      </trkpt>
      <trkpt lat="48.24222" lon="7.37186">
        <ele>328</ele>
        <time>2017-10-24T00:53:23Z</time>
      </trkpt>
      <trkpt lat="48.24189" lon="7.37307">
        <ele>321</ele>
        <time>2017-10-24T00:55:23Z</time>
      </trkpt>
      <trkpt lat="48.24169" lon="7.37428">
        <ele>306</ele>
        <time>2017-10-24T00:57:23Z</time>
      </trkpt>
      <trkpt lat="48.24156" lon="7.37487">
        <ele>300</ele>
        <time>2017-10-24T00:59:23Z</time>
      </trkpt>
      <trkpt lat="48.24141" lon="7.37576">
        <ele>292</ele>
        <time>2017-10-24T01:01:23Z</time>
      </trkpt>
      <trkpt lat="48.24136" lon="7.3763">
        <ele>287</ele>
        <time>2017-10-24T01:03:23Z</time>
      </trkpt>
      <trkpt lat="48.24121" lon="7.37699">
        <ele>282</ele>
        <time>2017-10-24T01:05:23Z</time>
      </trkpt>
      <trkpt lat="48.24121" lon="7.37729">
        <ele>277</ele>
        <time>2017-10-24T01:07:23Z</time>
      </trkpt>
      <trkpt lat="48.24105" lon="7.37787">
        <ele>273</ele>
        <time>2017-10-24T01:09:23Z</time>
      </trkpt>
      <trkpt lat="48.24094" lon="7.37848">
        <ele>268</ele>
        <time>2017-10-24T01:11:23Z</time>
      </trkpt>
      <trkpt lat="48.24093" lon="7.3789">
        <ele>262</ele>
        <time>2017-10-24T01:13:23Z</time>
      </trkpt>
      <trkpt lat="48.24103" lon="7.37911">
        <ele>259</ele>
        <time>2017-10-24T01:15:23Z</time>
      </trkpt>
      <trkpt lat="48.24126" lon="7.37923">
        <ele>256</ele>
        <time>2017-10-24T01:17:23Z</time>
      </trkpt>
      <trkpt lat="48.24148" lon="7.37932">
        <ele>254</ele>
        <time>2017-10-24T01:19:23Z</time>
      </trkpt>
      <trkpt lat="48.24168" lon="7.37949">
        <ele>251</ele>
        <time>2017-10-24T01:21:23Z</time>
      </trkpt>
      <trkpt lat="48.2418" lon="7.37964">
        <ele>250</ele>
        <time>2017-10-24T01:23:23Z</time>
      </trkpt>
      <trkpt lat="48.24172" lon="7.37972">
        <ele>249</ele>
        <time>2017-10-24T01:25:23Z</time>
      </trkpt>
      <trkpt lat="48.24197" lon="7.38004">
        <ele>247</ele>
        <time>2017-10-24T01:27:23Z</time>
      </trkpt>
      <trkpt lat="48.24223" lon="7.38024">
        <ele>246</ele>
        <time>2017-10-24T01:29:23Z</time>
      </trkpt>
      <trkpt lat="48.2425" lon="7.38036">
        <ele>245</ele>
        <time>2017-10-24T01:31:23Z</time>
      </trkpt>
      <trkpt lat="48.24268" lon="7.38048">
        <ele>246</ele>
        <time>2017-10-24T01:33:23Z</time>
      </trkpt>
      <trkpt lat="48.24267" lon="7.38066">
        <ele>245</ele>
        <time>2017-10-24T01:35:23Z</time>
      </trkpt>
      <trkpt lat="48.24295" lon="7.38069">
        <ele>246</ele>
        <time>2017-10-24T01:37:23Z</time>
      </trkpt>
      <trkpt lat="48.24311" lon="7.38077">
        <ele>246</ele>
        <time>2017-10-24T01:39:23Z</time>
      </trkpt>
      <trkpt lat="48.24338" lon="7.38126">
        <ele>244</ele>
        <time>2017-10-24T01:41:23Z</time>
      </trkpt>
      <trkpt lat="48.24354" lon="7.38156">
        <ele>243</ele>
        <time>2017-10-24T01:43:23Z</time>
      </trkpt>
      <trkpt lat="48.2443" lon="7.3822">
        <ele>244</ele>
        <time>2017-10-24T01:45:23Z</time>
      </trkpt>
      <trkpt lat="48.24487" lon="7.38247">
        <ele>246</ele>
        <time>2017-10-24T01:47:23Z</time>
      </trkpt>
      <trkpt lat="48.24538" lon="7.38277">
        <ele>248</ele>
        <time>2017-10-24T01:49:23Z</time>
      </trkpt>
      <trkpt lat="48.24565" lon="7.38287">
        <ele>249</ele>
        <time>2017-10-24T01:51:23Z</time>
      </trkpt>
      <trkpt lat="48.24594" lon="7.38346">
        <ele>247</ele>
        <time>2017-10-24T01:53:23Z</time>
      </trkpt>
      <trkpt lat="48.24627" lon="7.38394">
        <ele>247</ele>
        <time>2017-10-24T01:55:23Z</time>
      </trkpt>
      <trkpt lat="48.24665" lon="7.38436">
        <ele>247</ele>
        <time>2017-10-24T01:57:23Z</time>
      </trkpt>
      <trkpt lat="48.24696" lon="7.38463">
        <ele>247</ele>
        <time>2017-10-24T01:59:23Z</time>
      </trkpt>
      <trkpt lat="48.24732" lon="7.38492">
        <ele>247</ele>
        <time>2017-10-24T02:01:23Z</time>
      </trkpt>
      <trkpt lat="48.24748" lon="7.38462">
        <ele>251</ele>
        <time>2017-10-24T02:03:23Z</time>
      </trkpt>
      <trkpt lat="48.24756" lon="7.38429">
        <ele>254</ele>
        <time>2017-10-24T02:05:23Z</time>
      </trkpt>
      <trkpt lat="48.24768" lon="7.38425">
        <ele>256</ele>
        <time>2017-10-24T02:07:23Z</time>
      </trkpt>
      <trkpt lat="48.24796" lon="7.38472">
        <ele>255</ele>
        <time>2017-10-24T02:09:23Z</time>
      </trkpt>
      <trkpt lat="48.24835" lon="7.38529">
        <ele>253</ele>
        <time>2017-10-24T02:11:23Z</time>
      </trkpt>
      <trkpt lat="48.24874" lon="7.38564">
        <ele>253</ele>
        <time>2017-10-24T02:13:23Z</time>
      </trkpt>
      <trkpt lat="48.24913" lon="7.38601">
        <ele>252</ele>
        <time>2017-10-24T02:15:23Z</time>
      </trkpt>
      <trkpt lat="48.24996" lon="7.38651">
        <ele>252</ele>
        <time>2017-10-24T02:17:23Z</time>
      </trkpt>
      <trkpt lat="48.25025" lon="7.38652">
        <ele>256</ele>
        <time>2017-10-24T02:19:23Z</time>
      </trkpt>
      <trkpt lat="48.25027" lon="7.387">
        <ele>250</ele>
        <time>2017-10-24T02:21:23Z</time>
      </trkpt>
      <trkpt lat="48.25032" lon="7.38741">
        <ele>245</ele>
        <time>2017-10-24T02:23:23Z</time>
      </trkpt>
      <trkpt lat="48.25056" lon="7.38808">
        <ele>239</ele>
        <time>2017-10-24T02:25:23Z</time>
      </trkpt>
      <trkpt lat="48.25087" lon="7.38833">
        <ele>239</ele>
        <time>2017-10-24T02:27:23Z</time>
      </trkpt>
      <trkpt lat="48.25166" lon="7.38871">
        <ele>241</ele>
        <time>2017-10-24T02:29:23Z</time>
      </trkpt>
      <trkpt lat="48.25242" lon="7.38897">
        <ele>237</ele>
        <time>2017-10-24T02:31:23Z</time>
      </trkpt>
      <trkpt lat="48.25305" lon="7.38916">
        <ele>233</ele>
        <time>2017-10-24T02:33:23Z</time>
      </trkpt>
      <trkpt lat="48.25346" lon="7.38934">
        <ele>230</ele>
        <time>2017-10-24T02:35:23Z</time>
      </trkpt>
      <trkpt lat="48.25354" lon="7.38948">
        <ele>229</ele>
        <time>2017-10-24T02:37:23Z</time>
      </trkpt>
      <trkpt lat="48.25354" lon="7.3898">
        <ele>226</ele>
        <time>2017-10-24T02:39:23Z</time>
      </trkpt>
      <trkpt lat="48.25358" lon="7.38997">
        <ele>225</ele>
        <time>2017-10-24T02:41:23Z</time>
      </trkpt>
      <trkpt lat="48.25367" lon="7.39013">
        <ele>223</ele>
        <time>2017-10-24T02:43:23Z</time>
      </trkpt>
      <trkpt lat="48.25348" lon="7.39075">
        <ele>218</ele>
        <time>2017-10-24T02:45:23Z</time>
      </trkpt>
      <trkpt lat="48.25429" lon="7.39158">
        <ele>217</ele>
        <time>2017-10-24T02:47:23Z</time>
      </trkpt>
      <trkpt lat="48.25472" lon="7.39205">
        <ele>217</ele>
        <time>2017-10-24T02:49:23Z</time>
      </trkpt>
      <trkpt lat="48.2548" lon="7.39196">
        <ele>217</ele>
        <time>2017-10-24T02:51:23Z</time>
      </trkpt>
      <trkpt lat="48.255" lon="7.3916">
        <ele>218</ele>
        <time>2017-10-24T02:53:23Z</time>
      </trkpt>
      <trkpt lat="48.25532" lon="7.39085">
        <ele>223</ele>
        <time>2017-10-24T02:55:23Z</time>
      </trkpt>
      <trkpt lat="48.25552" lon="7.39028">
        <ele>228</ele>
        <time>2017-10-24T02:57:23Z</time>
      </trkpt>
      <trkpt lat="48.25568" lon="7.3898">
        <ele>233</ele>
        <time>2017-10-24T02:59:23Z</time>
      </trkpt>
      <trkpt lat="48.25574" lon="7.38957">
        <ele>236</ele>
        <time>2017-10-24T03:01:23Z</time>
      </trkpt>
      <trkpt lat="48.25601" lon="7.38968">
        <ele>235</ele>
        <time>2017-10-24T03:03:23Z</time>
      </trkpt>
      <trkpt lat="48.25618" lon="7.38984">
        <ele>233</ele>
        <time>2017-10-24T03:05:23Z</time>
      </trkpt>
      <trkpt lat="48.25629" lon="7.38987">
        <ele>233</ele>
        <time>2017-10-24T03:07:23Z</time>
      </trkpt>
      <trkpt lat="48.25658" lon="7.38985">
        <ele>233</ele>
        <time>2017-10-24T03:09:23Z</time>
      </trkpt>
      <trkpt lat="48.25683" lon="7.38999">
        <ele>234</ele>
        <time>2017-10-24T03:11:23Z</time>
      </trkpt>
      <trkpt lat="48.25713" lon="7.39021">
        <ele>236</ele>
        <time>2017-10-24T03:13:23Z</time>
      </trkpt>
      <trkpt lat="48.2573" lon="7.39032">
        <ele>237</ele>
        <time>2017-10-24T03:15:23Z</time>
      </trkpt>
      <trkpt lat="48.25766" lon="7.39065">
        <ele>238</ele>
        <time>2017-10-24T03:17:23Z</time>
      </trkpt>
      <trkpt lat="48.25813" lon="7.39068">
        <ele>244</ele>
        <time>2017-10-24T03:19:23Z</time>
      </trkpt>
      <trkpt lat="48.25847" lon="7.39073">
        <ele>247</ele>
        <time>2017-10-24T03:21:23Z</time>
      </trkpt>
      <trkpt lat="48.25885" lon="7.39092">
        <ele>249</ele>
        <time>2017-10-24T03:23:23Z</time>
      </trkpt>
      <trkpt lat="48.25916" lon="7.39119">
        <ele>249</ele>
        <time>2017-10-24T03:25:23Z</time>
      </trkpt>
      <trkpt lat="48.25955" lon="7.39147">
        <ele>249</ele>
        <time>2017-10-24T03:27:23Z</time>
      </trkpt>
      <trkpt lat="48.25998" lon="7.39181">
        <ele>248</ele>
        <time>2017-10-24T03:29:23Z</time>
      </trkpt>
      <trkpt lat="48.26079" lon="7.39222">
        <ele>248</ele>
        <time>2017-10-24T03:31:23Z</time>
      </trkpt>
      <trkpt lat="48.26142" lon="7.39265">
        <ele>249</ele>
        <time>2017-10-24T03:33:23Z</time>
      </trkpt>
      <trkpt lat="48.26198" lon="7.39302">
        <ele>248</ele>
        <time>2017-10-24T03:35:23Z</time>
      </trkpt>
      <trkpt lat="48.26256" lon="7.39306">
        <ele>249</ele>
        <time>2017-10-24T03:37:23Z</time>
      </trkpt>
      <trkpt lat="48.26306" lon="7.39345">
        <ele>244</ele>
        <time>2017-10-24T03:39:23Z</time>
      </trkpt>
      <trkpt lat="48.26382" lon="7.39365">
        <ele>241</ele>
        <time>2017-10-24T03:41:23Z</time>
      </trkpt>
      <trkpt lat="48.26401" lon="7.39378">
        <ele>239</ele>
        <time>2017-10-24T03:43:23Z</time>
      </trkpt>
      <trkpt lat="48.2647" lon="7.39426">
        <ele>234</ele>
        <time>2017-10-24T03:45:23Z</time>
      </trkpt>
      <trkpt lat="48.26506" lon="7.39445">
        <ele>233</ele>
        <time>2017-10-24T03:47:23Z</time>
      </trkpt>
      <trkpt lat="48.26577" lon="7.3945">
        <ele>232</ele>
        <time>2017-10-24T03:49:23Z</time>
      </trkpt>
      <trkpt lat="48.26631" lon="7.39488">
        <ele>228</ele>
        <time>2017-10-24T03:51:23Z</time>
      </trkpt>
      <trkpt lat="48.26691" lon="7.39518">
        <ele>224</ele>
        <time>2017-10-24T03:53:23Z</time>
      </trkpt>
      <trkpt lat="48.26731" lon="7.39545">
        <ele>221</ele>
        <time>2017-10-24T03:55:23Z</time>
      </trkpt>
      <trkpt lat="48.26755" lon="7.39566">
        <ele>219</ele>
        <time>2017-10-24T03:57:23Z</time>
      </trkpt>
      <trkpt lat="48.26817" lon="7.39596">
        <ele>216</ele>
        <time>2017-10-24T03:59:23Z</time>
      </trkpt>
      <trkpt lat="48.26854" lon="7.39629">
        <ele>212</ele>
        <time>2017-10-24T04:01:23Z</time>
      </trkpt>
      <trkpt lat="48.26858" lon="7.39648">
        <ele>209</ele>
        <time>2017-10-24T04:03:23Z</time>
      </trkpt>
      <trkpt lat="48.26853" lon="7.39696">
        <ele>205</ele>
        <time>2017-10-24T04:05:23Z</time>
      </trkpt>
      <trkpt lat="48.26848" lon="7.3974">
        <ele>202</ele>
        <time>2017-10-24T04:07:23Z</time>
      </trkpt>
      <trkpt lat="48.26865" lon="7.39766">
        <ele>199</ele>
        <time>2017-10-24T04:09:23Z</time>
      </trkpt>
      <trkpt lat="48.26883" lon="7.39782">
        <ele>198</ele>
        <time>2017-10-24T04:11:23Z</time>
      </trkpt>
      <trkpt lat="48.26899" lon="7.39795">
        <ele>196</ele>
        <time>2017-10-24T04:13:23Z</time>
      </trkpt>
    </trkseg>
  </trk>
</gpx>